Time;durP1;ratioP1;P1;durP2;ratioP2;P2;SDS_P1;SDS_P2;PMS_P1;PMS_P2;Temp;Humidity;BMP_temperature;BMP_pressure;BME280_temperature;BME280_humidity;BME280_pressure;Samples;Min_cycle;Max_cycle;Signal;HPM_P1;HPM_P2
2022/12/07 00:01:45;;;;;;;12.20;8.47;;;3.20;99.90;;;6.53;60.74;97663.16;5004899;28;20050;-59
2022/12/07 00:04:17;;;;;;;11.07;8.37;;;3.20;99.90;;;6.66;59.89;97657.63;5005401;28;20056;-59
2022/12/07 00:06:51;;;;;;;12.53;7.23;;;3.30;99.90;;;6.74;59.85;97662.25;5003722;28;20354;-59
2022/12/07 00:09:19;;;;;;;14.23;8.35;;;3.30;99.90;;;6.72;59.70;97667.66;5003357;28;20046;-60
2022/12/07 00:11:51;;;;;;;12.67;8.03;;;3.30;99.90;;;6.82;59.35;97652.63;5004524;28;20046;-59
2022/12/07 00:14:20;;;;;;;12.23;7.67;;;3.30;99.90;;;6.87;59.69;97657.53;5004892;28;20046;-60
2022/12/07 00:16:50;;;;;;;10.77;8.10;;;3.30;99.90;;;6.95;59.36;97651.56;5005085;28;20046;-59
2022/12/07 00:19:19;;;;;;;11.23;8.00;;;3.40;99.90;;;6.96;59.08;97653.22;5003693;28;20042;-59
2022/12/07 00:21:47;;;;;;;11.13;7.60;;;3.40;99.90;;;6.90;59.32;97650.16;5004347;28;20046;-59
2022/12/07 00:24:15;;;;;;;11.93;7.23;;;3.30;99.90;;;6.88;58.86;97644.19;5003797;28;20050;-59
2022/12/07 00:26:45;;;;;;;12.70;7.07;;;3.30;99.90;;;6.86;58.64;97651.41;5004674;28;20042;-60
2022/12/07 00:29:21;;;;;;;13.50;8.07;;;3.30;99.90;;;6.90;59.14;97647.53;5004534;28;20061;-59
2022/12/07 00:31:49;;;;;;;12.20;7.53;;;3.30;99.90;;;6.99;58.52;97650.31;5004612;28;20253;-59
2022/12/07 00:34:20;;;;;;;13.37;7.53;;;3.40;99.90;;;7.03;59.02;97652.53;5003278;28;20348;-59
2022/12/07 00:36:49;;;;;;;14.50;7.77;;;3.40;99.90;;;7.03;58.71;97651.69;5004597;28;20046;-59
2022/12/07 00:39:17;;;;;;;12.43;8.50;;;3.40;99.90;;;7.02;58.36;97636.81;5003156;28;20253;-59
2022/12/07 00:41:45;;;;;;;13.20;8.10;;;3.40;99.90;;;7.04;58.68;97650.72;5019209;28;20057;-60
2022/12/07 00:44:13;;;;;;;15.60;8.47;;;3.30;99.90;;;6.95;58.89;97641.81;5004363;28;20057;-60
2022/12/07 00:46:41;;;;;;;14.77;9.87;;;3.30;99.90;;;6.90;58.88;97638.72;5004252;28;20046;-59
2022/12/07 00:49:09;;;;;;;12.80;7.27;;;3.30;99.90;;;6.94;58.65;97641.94;5004097;28;20042;-59
2022/12/07 00:51:36;;;;;;;12.60;8.37;;;3.30;99.90;;;6.92;58.57;97650.03;5004054;28;20252;-59
2022/12/07 00:54:04;;;;;;;11.67;7.60;;;3.30;99.90;;;6.92;58.98;97652.69;5004527;28;20050;-59
2022/12/07 00:56:32;;;;;;;11.13;7.63;;;3.20;99.90;;;6.90;58.61;97649.31;5004413;28;20056;-59
2022/12/07 00:59:03;;;;;;;11.83;7.37;;;3.30;99.90;;;6.89;59.03;97652.94;5003456;28;20241;-59
2022/12/07 01:01:34;;;;;;;12.57;7.13;;;3.30;99.90;;;6.84;59.33;97657.81;4996275;28;20057;-54
2022/12/07 01:04:03;;;;;;;11.77;7.90;;;3.30;99.90;;;6.85;59.37;97646.25;5004089;28;20053;-55
2022/12/07 01:06:32;;;;;;;10.80;7.70;;;3.20;99.90;;;6.82;58.56;97647.34;5002920;28;20050;-54
2022/12/07 01:09:00;;;;;;;12.87;7.77;;;3.20;99.90;;;6.84;58.60;97653.38;5000929;28;20363;-54
2022/12/07 01:11:30;;;;;;;13.57;8.80;;;3.20;99.90;;;6.93;59.12;97654.34;5004107;28;20247;-54
2022/12/07 01:14:00;;;;;;;12.63;7.90;;;3.30;99.90;;;6.87;59.21;97652.25;5003975;28;20042;-54
2022/12/07 01:16:31;;;;;;;11.83;6.47;;;3.30;99.90;;;6.84;58.86;97649.88;5002957;28;20052;-55
2022/12/07 01:19:00;;;;;;;16.23;7.97;;;3.20;99.90;;;6.80;58.64;97651.13;5003849;28;20042;-55
2022/12/07 01:21:35;;;;;;;11.73;7.03;;;3.20;99.90;;;6.68;59.63;97650.41;5002913;28;20042;-55
2022/12/07 01:24:07;;;;;;;13.00;7.83;;;3.10;99.90;;;6.72;59.78;97653.63;5003785;28;20261;-52
2022/12/07 01:26:34;;;;;;;12.80;7.93;;;3.10;99.90;;;6.75;59.03;97642.78;5002028;28;20344;-55
2022/12/07 01:29:03;;;;;;;9.83;7.03;;;3.10;99.90;;;6.82;59.71;97650.00;5003235;28;20048;-55
2022/12/07 01:31:31;;;;;;;10.87;7.57;;;3.20;99.90;;;6.86;58.74;97654.06;4994411;28;20352;-56
2022/12/07 01:34:00;;;;;;;10.37;6.87;;;3.20;99.90;;;6.87;58.66;97660.19;5002426;28;20252;-54
2022/12/07 01:36:32;;;;;;;11.10;6.90;;;3.30;99.90;;;6.80;59.34;97662.53;5003374;28;20042;-59
2022/12/07 01:39:05;;;;;;;12.60;7.53;;;3.20;99.90;;;6.72;59.57;97667.66;5003466;28;20222;-59
2022/12/07 01:41:39;;;;;;;17.17;8.50;;;3.20;99.90;;;6.73;59.41;97664.06;4995484;28;20370;-58
2022/12/07 01:44:27;;;;;;;12.03;7.23;;;3.10;99.90;;;6.58;59.86;97662.78;5003295;28;20045;-59
2022/12/07 01:47:00;;;;;;;11.27;6.57;;;3.10;99.90;;;6.67;59.41;97665.44;5003516;28;20050;-59
2022/12/07 01:49:48;;;;;;;11.98;7.93;;;3.10;99.90;;;6.59;59.84;97665.28;5001839;28;20054;-59
2022/12/07 01:52:37;;;;;;;13.93;7.87;;;3.10;99.90;;;6.63;59.38;97664.06;5002965;28;20042;-58
2022/12/07 01:55:11;;;;;;;11.17;6.90;;;3.10;99.90;;;6.59;59.25;97667.09;5002144;28;20244;-59
2022/12/07 01:57:48;;;;;;;11.87;7.80;;;3.00;99.90;;;6.54;59.85;97658.75;4996271;28;20048;-59
2022/12/07 02:00:18;;;;;;;10.60;7.13;;;3.00;99.90;;;6.60;59.28;97655.53;5017168;28;20050;-59
2022/12/07 02:06:15;;;;;;;11.40;6.43;;;3.10;99.90;;;6.65;60.16;97662.09;4999293;28;20038;-59
2022/12/07 02:08:44;;;;;;;10.48;6.90;;;3.10;99.90;;;6.74;59.18;97654.31;5002013;28;20048;-59
2022/12/07 02:11:11;;;;;;;12.07;6.90;;;3.20;99.90;;;6.83;59.47;97656.16;5000452;28;20050;-59
2022/12/07 02:13:42;;;;;;;12.00;7.13;;;3.30;99.90;;;6.87;59.21;97660.19;5001809;28;20068;-59
2022/12/07 02:16:42;;;;;;;12.40;6.60;;;3.30;99.90;;;6.92;59.19;97657.97;5002264;28;20241;-59
2022/12/07 02:19:22;;;;;;;12.60;6.67;;;3.40;99.90;;;6.95;59.14;97656.84;5002675;28;20357;-59
2022/12/07 02:22:27;;;;;;;10.57;6.93;;;3.40;99.90;;;6.95;59.16;97655.03;5002745;28;20045;-60
2022/12/07 02:25:27;;;;;;;10.67;6.77;;;3.40;99.90;;;6.92;59.03;97651.81;5000652;28;20401;-59
2022/12/07 02:28:30;;;;;;;11.27;6.80;;;3.40;99.90;;;6.88;59.15;97648.59;4995517;28;20034;-59
2022/12/07 02:31:08;;;;;;;11.47;6.80;;;3.40;99.90;;;6.92;58.51;97650.03;5011258;28;20038;-59
2022/12/07 02:33:54;;;;;;;18.93;7.17;;;3.30;99.90;;;6.95;59.29;97638.31;5001449;28;20038;-60
2022/12/07 02:36:30;;;;;;;11.20;7.23;;;3.40;99.90;;;7.00;58.91;97638.72;5001351;28;20046;-60
2022/12/07 02:39:10;;;;;;;11.87;7.50;;;3.40;99.90;;;7.03;58.91;97641.09;5001103;28;20046;-59
2022/12/07 02:41:51;;;;;;;11.20;7.00;;;3.50;99.90;;;7.01;58.24;97633.28;4994941;28;20064;-59
2022/12/07 02:44:24;;;;;;;12.27;6.83;;;3.50;99.90;;;6.98;58.35;97636.25;5001117;28;20370;-59
2022/12/07 02:46:59;;;;;;;12.67;7.33;;;3.40;99.90;;;6.96;58.50;97629.41;5002772;28;20126;-60
2022/12/07 02:49:29;;;;;;;12.83;6.40;;;3.40;99.90;;;6.94;58.48;97636.63;5000979;28;20260;-59
2022/12/07 02:51:56;;;;;;;12.70;7.00;;;3.30;99.90;;;6.89;58.88;97632.59;5001395;28;20046;-59
2022/12/07 02:54:24;;;;;;;11.10;7.67;;;3.30;99.90;;;6.90;59.08;97628.13;5001889;28;20058;-59
2022/12/07 02:57:53;;;;;;;13.70;8.27;;;3.30;99.90;;;6.86;58.73;97626.75;5002396;28;20352;-59
2022/12/07 03:00:21;;;;;;;12.10;6.87;;;3.40;99.90;;;6.92;58.57;97622.72;4976482;28;20054;-59
2022/12/07 03:02:58;;;;;;;12.17;7.60;;;3.30;99.90;;;6.83;58.17;97619.94;5001293;28;20042;-59
2022/12/07 03:06:10;;;;;;;15.50;7.70;;;3.20;99.90;;;6.84;58.83;97618.09;5001599;28;20058;-53
2022/12/07 03:09:06;;;;;;;11.93;7.90;;;3.30;99.90;;;6.75;58.31;97616.31;4994532;28;20042;-59
2022/12/07 03:11:55;;;;;;;10.97;6.83;;;3.20;99.90;;;6.78;58.43;97613.38;5001842;28;20057;-60
2022/12/07 03:14:34;;;;;;;11.07;6.50;;;3.20;99.90;;;6.83;58.97;97619.94;5002319;28;20046;-59
2022/12/07 03:17:26;;;;;;;11.37;6.60;;;3.20;99.90;;;6.83;58.94;97616.44;5002084;28;20038;-59
2022/12/07 03:20:01;;;;;;;11.37;6.63;;;3.30;99.90;;;6.87;58.03;97618.66;5000926;28;20065;-59
2022/12/07 03:22:32;;;;;;;12.07;7.23;;;3.30;99.90;;;6.88;58.04;97612.41;5002086;28;20059;-59
2022/12/07 03:25:07;;;;;;;12.37;7.33;;;3.40;99.90;;;6.94;58.35;97618.97;5001109;28;20043;-59
2022/12/07 03:28:01;;;;;;;11.03;6.70;;;3.30;99.90;;;6.88;58.26;97606.25;5000237;28;20061;-60
2022/12/07 03:30:37;;;;;;;10.90;7.30;;;3.30;99.90;;;6.93;58.38;97608.50;5000404;28;20046;-59
2022/12/07 03:33:29;;;;;;;12.33;7.40;;;3.30;99.90;;;6.78;58.16;97608.09;5001099;28;20043;-59
2022/12/07 03:36:15;;;;;;;12.23;7.07;;;3.20;99.90;;;6.72;58.19;97603.34;4985685;28;20050;-53
2022/12/07 03:39:02;;;;;;;11.00;6.40;;;3.10;99.90;;;6.72;58.54;97609.47;4994916;28;20341;-52
2022/12/07 03:41:34;;;;;;;9.60;6.37;;;3.10;99.90;;;6.74;57.83;97599.56;5000496;28;20265;-55
2022/12/07 03:44:06;;;;;;;10.37;5.53;;;3.20;99.90;;;6.80;57.74;97603.47;5002064;28;20072;-56
2022/12/07 03:47:11;;;;;;;9.00;5.37;;;3.30;99.90;;;6.77;57.53;97606.44;5001833;28;20050;-53
2022/12/07 03:50:11;;;;;;;7.60;4.95;;;3.30;99.90;;;6.83;57.67;97603.22;4995145;28;20348;-55
2022/12/07 03:52:47;;;;;;;9.23;4.93;;;3.30;99.90;;;6.84;57.53;97603.09;5004374;28;20366;-54
2022/12/07 03:55:25;;;;;;;7.20;4.57;;;3.30;99.90;;;6.86;57.47;97595.84;5004401;28;20042;-55
2022/12/07 03:57:59;;;;;;;7.83;4.40;;;3.40;99.90;;;6.87;57.20;97586.09;5005826;28;20046;-54
2022/12/07 04:00:28;;;;;;;7.10;4.33;;;3.40;99.90;;;6.90;57.19;97583.16;5004830;28;20058;-54
2022/12/07 04:02:56;;;;;;;6.37;4.10;;;3.50;99.90;;;6.96;57.34;97581.75;5004023;28;20056;-55
2022/12/07 04:05:24;;;;;;;8.67;4.43;;;3.60;99.90;;;6.93;56.60;97582.88;5003970;28;20046;-54
2022/12/07 04:07:52;;;;;;;6.97;4.30;;;3.60;99.90;;;6.97;56.57;97573.69;5004007;28;20243;-51
2022/12/07 04:10:20;;;;;;;6.87;4.60;;;3.60;99.90;;;7.00;56.26;97565.47;5000706;28;20218;-52
2022/12/07 04:12:47;;;;;;;9.53;4.47;;;3.60;99.90;;;7.00;56.78;97570.75;5005068;28;20206;-52
2022/12/07 04:15:15;;;;;;;9.30;5.10;;;3.60;99.90;;;7.03;56.67;97567.81;5004928;28;20341;-55
2022/12/07 04:17:43;;;;;;;8.30;4.90;;;3.70;99.90;;;7.03;56.15;97567.00;5005466;28;20052;-54
2022/12/07 04:20:12;;;;;;;9.13;4.80;;;3.60;99.90;;;7.01;56.28;97564.47;5003418;28;20038;-53
2022/12/07 04:22:40;;;;;;;7.07;4.00;;;3.60;99.90;;;6.98;55.60;97553.34;5004232;28;20042;-53
2022/12/07 04:25:08;;;;;;;8.47;4.60;;;3.60;99.90;;;6.90;56.07;97556.69;5005217;28;20042;-50
2022/12/07 04:27:36;;;;;;;7.50;4.70;;;3.50;99.90;;;6.88;55.69;97553.34;5003856;28;20253;-53
2022/12/07 04:30:05;;;;;;;6.93;3.83;;;3.50;99.90;;;6.87;55.96;97557.81;5003202;28;20362;-54
2022/12/07 04:32:32;;;;;;;5.67;3.43;;;3.50;98.20;;;6.88;55.79;97555.97;5004583;28;20042;-53
2022/12/07 04:35:00;;;;;;;5.93;3.43;;;3.40;98.70;;;6.85;54.91;97554.47;5004770;28;20042;-54
2022/12/07 04:37:28;;;;;;;5.83;3.73;;;3.40;97.80;;;6.77;54.62;97564.91;5004364;28;20053;-54
2022/12/07 04:39:56;;;;;;;7.27;3.70;;;3.40;95.80;;;6.82;54.74;97572.44;5002868;28;20352;-52
2022/12/07 04:42:23;;;;;;;7.53;5.10;;;3.40;95.90;;;6.55;54.29;97576.59;5004361;28;20046;-55
2022/12/07 04:44:51;;;;;;;8.73;4.70;;;3.20;93.40;;;6.41;54.76;97577.00;5004560;28;20052;-54
2022/12/07 04:47:19;;;;;;;6.33;4.73;;;3.00;96.60;;;6.16;55.50;97576.50;5004273;28;20046;-51
2022/12/07 04:49:47;;;;;;;7.90;4.80;;;2.80;99.10;;;6.26;56.04;97577.38;5002842;28;20045;-54
2022/12/07 04:52:14;;;;;;;8.70;4.73;;;2.80;98.80;;;6.21;55.20;97569.03;5004564;28;20046;-52
2022/12/07 04:54:42;;;;;;;6.90;5.43;;;2.70;99.90;;;6.24;54.79;97574.06;4996494;28;20049;-55
2022/12/07 04:57:10;;;;;;;7.90;6.10;;;2.80;99.90;;;6.16;55.42;97581.78;5004239;28;20074;-52
2022/12/07 04:59:38;;;;;;;5.33;4.40;;;2.70;99.70;;;6.21;54.99;97586.69;5003065;28;20348;-51
2022/12/07 05:02:12;;;;;;;6.55;4.03;;;2.70;99.90;;;6.07;55.62;97585.28;5003830;28;20056;-53
2022/12/07 05:04:40;;;;;;;9.07;6.27;;;2.70;99.90;;;6.13;54.88;97586.50;5002903;28;20050;-51
2022/12/07 05:07:07;;;;;;;10.40;6.57;;;2.60;99.90;;;6.00;55.99;97599.97;5004001;28;20042;-55
2022/12/07 05:09:35;;;;;;;11.73;5.40;;;2.60;99.90;;;5.78;56.50;97596.53;5002139;28;20057;-53
2022/12/07 05:12:03;;;;;;;11.20;6.17;;;2.40;99.90;;;5.72;56.35;97599.69;5003978;28;20046;-53
2022/12/07 05:14:31;;;;;;;12.10;6.37;;;2.40;99.90;;;5.61;57.38;97602.41;5004082;28;20255;-53
2022/12/07 05:16:59;;;;;;;10.63;5.93;;;2.30;99.90;;;5.61;57.01;97605.06;5003649;28;20054;-52
2022/12/07 05:19:27;;;;;;;10.13;5.30;;;2.30;99.90;;;5.60;57.15;97598.91;5003278;28;20050;-55
2022/12/07 05:21:54;;;;;;;10.77;5.53;;;2.30;99.90;;;5.64;56.87;97596.84;5002854;28;20050;-53
2022/12/07 05:24:22;;;;;;;10.83;5.50;;;2.30;99.90;;;5.63;56.82;97596.03;5003578;28;20061;-54
2022/12/07 05:26:50;;;;;;;11.23;5.80;;;2.30;99.90;;;5.85;56.51;97594.19;5002664;28;20042;-54
2022/12/07 05:29:18;;;;;;;9.50;6.03;;;2.40;99.90;;;5.85;56.38;97586.25;5003796;28;20052;-55
2022/12/07 05:31:46;;;;;;;9.70;5.63;;;2.40;99.90;;;5.98;55.99;97589.53;5003232;28;20045;-54
2022/12/07 05:34:13;;;;;;;9.37;5.50;;;2.50;99.90;;;6.05;55.83;97587.22;5002496;28;20237;-54
2022/12/07 05:36:41;;;;;;;8.67;4.60;;;2.50;99.90;;;6.07;55.55;97587.91;5003513;28;20046;-53
2022/12/07 05:39:09;;;;;;;10.27;5.80;;;2.50;99.90;;;5.97;55.79;97594.94;5002084;28;20048;-54
2022/12/07 05:44:24;;;;;;;7.30;4.63;;;2.50;99.90;;;6.11;55.10;97587.50;5003248;28;20046;-52
2022/12/07 05:46:52;;;;;;;8.90;4.90;;;2.60;99.90;;;6.18;55.00;97587.78;5003264;28;20046;-53
2022/12/07 05:49:19;;;;;;;9.27;5.17;;;2.70;99.90;;;6.03;55.40;97592.63;5001629;28;20370;-51
2022/12/07 05:51:47;;;;;;;8.60;4.73;;;2.70;99.90;;;5.80;56.12;97591.13;5003002;28;20268;-55
2022/12/07 05:54:15;;;;;;;9.07;5.70;;;2.60;99.90;;;5.90;55.88;97587.53;5003244;28;20038;-53
2022/12/07 05:56:43;;;;;;;7.83;4.73;;;2.50;99.90;;;6.01;55.32;97584.00;5003578;28;20245;-53
2022/12/07 05:59:23;;;;;;;9.00;5.60;;;2.50;99.90;;;6.07;54.92;97587.91;5001887;28;20370;-55
2022/12/07 06:01:57;;;;;;;9.43;5.67;;;2.60;99.90;;;5.71;56.19;97590.91;4994384;28;20042;-53
2022/12/07 06:04:29;;;;;;;8.90;5.43;;;2.50;99.90;;;5.65;55.85;97598.53;5002932;28;20100;-51
2022/12/07 06:06:57;;;;;;;8.53;4.80;;;2.50;99.90;;;5.77;55.78;97600.13;5002055;28;20042;-54
2022/12/07 06:09:27;;;;;;;9.33;5.83;;;2.50;99.90;;;5.73;55.36;97590.78;5002451;28;20038;-54
2022/12/07 06:14:44;;;;;;;8.40;5.67;;;2.60;99.90;;;6.08;55.38;97593.03;5017754;28;20050;-53
2022/12/07 06:17:12;;;;;;;10.47;6.80;;;2.70;98.00;;;6.19;55.00;97586.00;5002130;28;20042;-52
2022/12/07 06:19:40;;;;;;;7.73;4.30;;;2.80;99.20;;;6.24;54.31;97587.28;5001402;28;20251;-50
2022/12/07 06:22:10;;;;;;;11.53;6.97;;;2.90;97.30;;;6.31;54.92;97584.91;5001346;28;20390;-54
2022/12/07 06:24:39;;;;;;;7.97;4.37;;;2.90;97.10;;;6.40;54.31;97597.31;5002599;28;20056;-53
2022/12/07 06:27:07;;;;;;;8.67;4.83;;;3.00;97.10;;;6.46;54.39;97586.19;5002559;28;20057;-53
2022/12/07 06:29:34;;;;;;;5.87;3.90;;;3.00;97.00;;;6.52;54.14;97586.63;5002063;28;20241;-53
2022/12/07 06:32:03;;;;;;;7.23;5.17;;;3.10;95.90;;;6.53;54.37;97589.09;5002874;28;20042;-55
2022/12/07 06:34:31;;;;;;;8.97;4.77;;;3.10;95.20;;;6.54;53.50;97585.50;5002546;28;20042;-54
2022/12/07 06:36:59;;;;;;;13.67;6.83;;;3.10;94.70;;;6.46;53.37;97580.06;5017990;28;20046;-53
2022/12/07 06:39:28;;;;;;;11.30;6.50;;;3.00;93.30;;;6.47;53.12;97582.56;5002238;28;20056;-52
2022/12/07 06:41:57;;;;;;;8.10;4.33;;;3.00;92.80;;;6.45;53.34;97583.69;5002570;28;20049;-52
2022/12/07 06:44:25;;;;;;;8.10;5.07;;;3.00;91.80;;;6.51;53.50;97583.13;5002552;28;20054;-52
2022/12/07 06:46:54;;;;;;;7.83;4.57;;;3.10;94.20;;;6.45;53.23;97591.59;5001926;28;20275;-53
2022/12/07 06:49:41;;;;;;;8.53;4.93;;;3.10;92.60;;;6.48;53.54;97581.59;5001945;28;20052;-54
2022/12/07 06:52:09;;;;;;;8.90;5.57;;;3.00;93.20;;;6.51;53.44;97583.13;5017393;28;20064;-55
2022/12/07 06:54:37;;;;;;;14.93;8.93;;;3.10;93.30;;;6.55;53.51;97592.44;5002237;28;20042;-54
2022/12/07 06:57:05;;;;;;;10.67;6.10;;;3.00;93.40;;;6.55;52.95;97584.50;5002319;28;20046;-53
2022/12/07 06:59:32;;;;;;;7.73;4.87;;;3.00;91.60;;;6.53;53.48;97583.81;5001885;28;20053;-53
2022/12/07 07:02:00;;;;;;;6.13;4.87;;;3.00;92.00;;;6.55;53.34;97575.75;5001512;28;20056;-55
2022/12/07 07:04:28;;;;;;;8.90;4.83;;;3.10;92.30;;;6.53;52.49;97580.34;5002309;28;20054;-53
2022/12/07 07:06:56;;;;;;;6.53;4.30;;;3.10;89.80;;;6.52;52.54;97578.69;5002233;28;20356;-52
2022/12/07 07:09:27;;;;;;;5.27;3.10;;;3.10;90.00;;;6.60;52.14;97592.88;5000956;28;20345;-54
2022/12/07 07:11:55;;;;;;;6.17;3.90;;;3.10;90.40;;;6.66;52.34;97592.31;4998346;28;20046;-53
2022/12/07 07:14:22;;;;;;;7.07;3.97;;;3.20;89.80;;;6.64;51.51;97589.00;5002275;28;20048;-52
2022/12/07 07:16:50;;;;;;;6.33;3.53;;;3.20;87.20;;;6.71;52.37;97594.59;4994411;28;20362;-53
2022/12/07 07:19:18;;;;;;;6.07;3.57;;;3.20;87.60;;;6.68;51.79;97600.13;5001950;28;20064;-53
2022/12/07 07:21:47;;;;;;;5.47;3.67;;;3.20;87.30;;;6.63;51.14;97595.28;5001000;28;20269;-54
2022/12/07 07:24:15;;;;;;;6.20;4.30;;;3.20;86.80;;;6.57;51.13;97590.53;5004126;28;20435;-52
2022/12/07 07:26:43;;;;;;;5.17;3.27;;;3.20;86.10;;;6.63;51.03;97592.63;5005876;28;20244;-49
2022/12/07 07:29:10;;;;;;;7.77;3.83;;;3.20;86.10;;;6.69;51.90;97596.53;5005832;28;20038;-51
2022/12/07 07:31:38;;;;;;;7.40;4.43;;;3.30;87.40;;;6.75;51.33;97603.91;5004198;28;20038;-54
2022/12/07 07:34:06;;;;;;;8.33;4.07;;;3.30;86.70;;;6.81;51.51;97599.88;5004747;28;20035;-55
2022/12/07 07:36:34;;;;;;;7.93;3.83;;;3.40;86.00;;;6.82;50.83;97598.88;5006254;28;20050;-52
2022/12/07 07:39:02;;;;;;;6.13;3.77;;;3.30;82.40;;;6.83;50.68;97605.88;5004791;28;20244;-52
2022/12/07 07:41:30;;;;;;;5.57;3.30;;;3.30;86.10;;;6.86;50.20;97597.63;5004042;28;20050;-60
2022/12/07 07:43:57;;;;;;;8.43;3.97;;;3.40;84.20;;;6.88;51.08;97604.47;5020763;28;20056;-59
2022/12/07 07:46:25;;;;;;;5.73;3.53;;;3.40;85.10;;;6.94;50.75;97612.81;5005405;28;20056;-60
2022/12/07 07:48:53;;;;;;;7.33;3.33;;;3.40;85.00;;;6.87;50.20;97609.91;5005562;28;20056;-60
2022/12/07 07:51:22;;;;;;;6.77;3.43;;;3.40;82.30;;;6.89;49.97;97606.13;5004006;28;20038;-59
2022/12/07 07:53:49;;;;;;;4.83;3.40;;;3.40;83.10;;;6.86;50.46;97610.88;5005431;28;20065;-59
2022/12/07 07:56:17;;;;;;;7.97;4.00;;;3.40;82.30;;;6.93;50.26;97609.34;5004397;28;20038;-60
2022/12/07 07:58:45;;;;;;;5.70;3.50;;;3.50;83.60;;;6.86;50.06;97611.72;5005304;28;20046;-59
2022/12/07 08:01:13;;;;;;;4.50;2.70;;;3.40;81.80;;;6.85;50.39;97619.78;5003817;28;20046;-59
2022/12/07 08:03:41;;;;;;;5.03;3.20;;;3.40;83.10;;;6.73;50.19;97616.44;5005420;28;20064;-60
2022/12/07 08:06:08;;;;;;;4.93;2.60;;;3.40;81.60;;;6.75;50.02;97617.13;5020168;28;20340;-59
2022/12/07 08:08:36;;;;;;;4.60;2.70;;;3.40;79.80;;;6.75;49.82;97622.44;5004825;28;20046;-60
2022/12/07 08:11:08;;;;;;;4.47;2.53;;;3.40;82.80;;;6.87;49.92;97609.91;5004624;28;20049;-60
2022/12/07 08:13:37;;;;;;;4.17;2.70;;;3.50;81.60;;;6.83;50.01;97616.44;5003881;28;20043;-59
2022/12/07 08:16:08;;;;;;;5.03;3.00;;;3.50;80.50;;;6.90;49.81;97617.53;5003058;28;20034;-59
2022/12/07 08:18:40;;;;;;;5.17;2.97;;;3.50;82.50;;;6.71;50.35;97610.47;5003972;28;20046;-60
2022/12/07 08:21:13;;;;;;;5.13;2.60;;;3.50;82.10;;;6.84;49.82;97615.47;5004529;28;20357;-60
2022/12/07 08:23:41;;;;;;;5.17;2.80;;;3.60;82.10;;;6.93;49.91;97619.09;5004052;28;20062;-59
2022/12/07 08:26:13;;;;;;;5.27;2.73;;;3.60;83.20;;;7.05;50.17;97613.50;5005825;28;20054;-59
2022/12/07 08:28:42;;;;;;;5.57;3.03;;;3.70;84.00;;;7.16;50.25;97622.31;5003723;28;20137;-60
2022/12/07 08:31:16;;;;;;;6.63;3.17;;;3.80;83.70;;;7.03;49.83;97628.69;5004551;28;20351;-60
2022/12/07 08:33:48;;;;;;;7.13;4.10;;;3.70;80.80;;;7.13;49.71;97631.34;5004781;28;20256;-60
2022/12/07 08:36:16;;;;;;;7.30;3.70;;;3.80;82.70;;;7.21;49.76;97631.50;5002427;28;20060;-59
2022/12/07 08:38:45;;;;;;;4.63;3.03;;;3.80;83.00;;;7.20;49.62;97631.63;5004601;28;20049;-60
2022/12/07 08:41:33;;;;;;;5.33;2.93;;;3.80;81.70;;;7.18;49.45;97630.94;5003851;28;20058;-59
2022/12/07 08:44:01;;;;;;;6.33;3.37;;;3.80;83.10;;;7.20;49.60;97626.34;5003615;28;20046;-59
2022/12/07 08:46:57;;;;;;;7.87;4.10;;;3.90;81.70;;;7.25;49.95;97639.97;5004086;28;20146;-60
2022/12/07 08:49:33;;;;;;;5.60;2.93;;;3.90;82.20;;;7.22;49.59;97629.69;5000073;28;20050;-59
2022/12/07 08:52:04;;;;;;;7.63;3.03;;;3.90;80.70;;;7.30;50.05;97638.59;4996273;28;20383;-60
2022/12/07 08:54:36;;;;;;;7.47;3.67;;;3.90;82.20;;;7.28;49.68;97639.72;5003972;28;20046;-60
2022/12/07 08:57:05;;;;;;;6.07;3.00;;;3.90;82.60;;;7.36;49.48;97626.59;5003349;28;20038;-60
2022/12/07 08:59:35;;;;;;;6.97;3.93;;;3.90;83.30;;;7.45;50.20;97638.16;5002959;28;20054;-60
2022/12/07 09:02:05;;;;;;;4.30;3.00;;;4.00;84.00;;;7.46;49.97;97627.44;5003250;28;20049;-60
2022/12/07 09:04:34;;;;;;;6.27;3.13;;;4.00;83.10;;;7.43;49.79;97638.31;5004165;28;20056;-60
2022/12/07 09:07:01;;;;;;;5.37;3.17;;;4.00;82.30;;;7.51;50.09;97632.28;5003855;28;20042;-60
2022/12/07 09:09:29;;;;;;;4.50;2.70;;;4.10;83.20;;;7.53;49.93;97634.81;5002777;28;20046;-60
2022/12/07 09:11:57;;;;;;;4.87;2.83;;;4.20;85.00;;;7.56;49.72;97635.38;4996053;28;20044;-60
2022/12/07 09:14:25;;;;;;;5.47;3.00;;;4.20;83.70;;;7.41;50.01;97636.78;5002677;28;20042;-59
2022/12/07 09:16:53;;;;;;;7.37;3.57;;;4.10;84.00;;;7.54;50.26;97632.03;5002968;28;20042;-60
2022/12/07 09:19:21;;;;;;;6.80;3.87;;;4.10;84.00;;;7.62;49.75;97633.97;5003655;28;20064;-60
2022/12/07 09:21:48;;;;;;;5.37;4.00;;;4.20;85.20;;;7.54;50.15;97631.16;5003786;28;20055;-59
2022/12/07 09:24:16;;;;;;;9.63;5.10;;;4.10;85.90;;;6.90;51.35;97626.34;5003821;28;20053;-59
2022/12/07 09:26:44;;;;;;;8.03;4.50;;;4.00;86.00;;;7.12;51.02;97632.34;5002653;28;20050;-59
2022/12/07 09:29:12;;;;;;;8.20;3.90;;;3.90;88.10;;;6.78;52.38;97631.91;5003447;28;20038;-59
2022/12/07 09:31:40;;;;;;;7.57;4.73;;;3.90;88.20;;;7.17;51.46;97635.38;5003311;28;20043;-59
2022/12/07 09:34:08;;;;;;;6.07;3.33;;;4.00;89.50;;;7.03;51.96;97634.00;5002795;28;20046;-59
2022/12/07 09:36:36;;;;;;;7.97;4.20;;;4.00;88.30;;;7.01;52.25;97638.59;5002468;28;20053;-60
2022/12/07 09:39:04;;;;;;;7.03;3.53;;;4.00;89.00;;;6.89;52.95;97632.59;5003429;28;20046;-60
2022/12/07 09:41:32;;;;;;;5.80;3.50;;;3.90;90.80;;;7.15;52.71;97644.44;5002907;28;20050;-60
2022/12/07 09:44:26;;;;;;;4.83;2.97;;;4.00;91.30;;;6.90;53.27;97633.44;5002349;28;20240;-60
2022/12/07 09:46:56;;;;;;;7.03;3.03;;;3.90;91.80;;;7.13;53.14;97638.47;5002123;28;20248;-59
2022/12/07 09:49:28;;;;;;;6.87;3.83;;;3.90;92.60;;;6.95;53.82;97636.50;5003253;28;20368;-60
2022/12/07 09:52:08;;;;;;;4.53;3.00;;;3.90;93.50;;;6.80;54.17;97633.41;5002021;28;20052;-60
2022/12/07 09:54:43;;;;;;;10.20;3.57;;;3.80;95.70;;;7.16;53.34;97630.25;5003281;28;20046;-60
2022/12/07 09:57:14;;;;;;;4.20;3.27;;;4.00;95.60;;;7.10;53.85;97627.19;5001992;28;20060;-60
2022/12/07 09:59:42;;;;;;;6.43;3.57;;;4.00;95.50;;;7.05;53.99;97620.63;5001475;28;20050;-60
2022/12/07 10:02:41;;;;;;;6.13;3.67;;;4.00;96.00;;;6.65;55.16;97617.13;5001914;28;20052;-60
2022/12/07 10:05:20;;;;;;;4.03;2.70;;;3.90;96.50;;;6.56;55.03;97620.59;4995410;28;20053;-60
2022/12/07 10:07:51;;;;;;;3.43;2.30;;;3.80;95.20;;;6.87;54.00;97616.03;5001951;28;20052;-60
2022/12/07 10:10:29;;;;;;;4.60;2.13;;;3.80;96.40;;;6.34;54.72;97613.72;5001453;28;20050;-59
2022/12/07 10:13:07;;;;;;;5.47;2.77;;;3.70;96.10;;;6.56;55.12;97609.19;4991331;28;20046;-59
2022/12/07 10:15:45;;;;;;;4.93;2.53;;;3.60;97.80;;;6.63;54.84;97611.16;5001980;28;20052;-60
2022/12/07 10:18:31;;;;;;;4.53;2.93;;;3.60;98.00;;;6.30;55.68;97613.16;5002884;28;20046;-60
2022/12/07 10:21:13;;;;;;;3.30;2.03;;;3.60;98.90;;;6.17;57.31;97609.09;5001162;28;20046;-59
2022/12/07 10:24:00;;;;;;;4.87;2.60;;;3.50;99.50;;;6.43;55.78;97602.31;5002749;28;20077;-60
2022/12/07 10:26:29;;;;;;;5.40;3.13;;;3.60;99.90;;;6.39;56.87;97608.84;5002808;28;20344;-60
2022/12/07 10:29:33;;;;;;;4.63;3.47;;;3.60;99.90;;;6.44;56.39;97604.00;5001592;28;20048;-59
2022/12/07 10:32:06;;;;;;;7.47;3.27;;;3.70;99.90;;;6.41;57.37;97604.25;4994659;28;20038;-59
2022/12/07 10:34:37;;;;;;;4.20;2.90;;;3.70;99.90;;;6.10;58.66;97601.66;5002662;28;20042;-59
2022/12/07 10:37:09;;;;;;;3.97;2.47;;;3.70;99.90;;;5.94;58.38;97601.31;4996018;28;20050;-60
2022/12/07 10:39:50;;;;;;;4.27;2.80;;;3.60;99.90;;;6.28;57.69;97595.75;5002119;28;20236;-60
2022/12/07 10:42:27;;;;;;;4.70;2.67;;;3.70;99.90;;;6.35;58.12;97598.69;5001256;28;20056;-60
2022/12/07 10:45:17;;;;;;;4.10;2.37;;;3.70;99.90;;;6.37;58.07;97600.22;5017857;28;20065;-60
2022/12/07 10:48:34;;;;;;;3.97;2.43;;;3.80;99.90;;;6.34;57.41;97602.28;5001282;28;20052;-60
2022/12/07 10:51:20;;;;;;;5.13;2.67;;;3.80;99.90;;;6.13;58.83;97603.22;4994008;28;20050;-59
2022/12/07 10:54:02;;;;;;;4.63;3.17;;;3.70;99.90;;;6.09;58.82;97600.00;5001378;28;20043;-60
2022/12/07 10:56:58;;;;;;;10.10;4.37;;;3.60;99.90;;;6.27;58.13;97591.44;5002741;28;20053;-59
2022/12/07 11:00:08;;;;;;;8.60;4.53;;;3.60;99.90;;;6.30;58.09;97586.72;4999827;28;20042;-59
2022/12/07 11:02:53;;;;;;;8.27;4.40;;;3.50;99.90;;;6.37;57.99;97589.66;5003079;28;20046;-59
2022/12/07 11:06:11;;;;;;;11.33;5.30;;;3.60;99.90;;;6.74;57.07;97581.06;5001117;28;20050;-60